sensor_id;sensor_type;location;lat;lon;timestamp;temperature;humidity
4701;DHT22;8724;51.272;6.554;2022-09-09T00:00:27;20.60;99.90
4701;DHT22;8724;51.272;6.554;2022-09-09T00:03:03;20.60;99.90
4701;DHT22;8724;51.272;6.554;2022-09-09T00:05:41;20.60;99.90
4701;DHT22;8724;51.272;6.554;2022-09-09T00:08:16;20.60;99.90
4701;DHT22;8724;51.272;6.554;2022-09-09T00:10:49;20.60;99.90
4701;DHT22;8724;51.272;6.554;2022-09-09T00:13:24;20.60;99.90
4701;DHT22;8724;51.272;6.554;2022-09-09T00:16:02;20.60;99.90
4701;DHT22;8724;51.272;6.554;2022-09-09T00:18:49;20.60;99.90
4701;DHT22;8724;51.272;6.554;2022-09-09T00:21:23;20.60;99.90
4701;DHT22;8724;51.272;6.554;2022-09-09T00:23:54;20.60;99.90
4701;DHT22;8724;51.272;6.554;2022-09-09T00:26:32;20.60;99.90
4701;DHT22;8724;51.272;6.554;2022-09-09T00:29:10;20.60;99.90
4701;DHT22;8724;51.272;6.554;2022-09-09T00:31:42;20.60;99.90
4701;DHT22;8724;51.272;6.554;2022-09-09T00:34:13;20.60;99.90
4701;DHT22;8724;51.272;6.554;2022-09-09T00:36:42;20.60;99.90
4701;DHT22;8724;51.272;6.554;2022-09-09T00:39:27;20.70;99.90
4701;DHT22;8724;51.272;6.554;2022-09-09T00:42:09;20.50;99.90
4701;DHT22;8724;51.272;6.554;2022-09-09T00:44:51;20.50;99.90
4701;DHT22;8724;51.272;6.554;2022-09-09T00:47:44;20.50;99.90
4701;DHT22;8724;51.272;6.554;2022-09-09T00:50:31;20.50;99.90
4701;DHT22;8724;51.272;6.554;2022-09-09T00:53:15;20.50;99.90
4701;DHT22;8724;51.272;6.554;2022-09-09T00:55:49;20.50;99.90
4701;DHT22;8724;51.272;6.554;2022-09-09T00:58:20;20.50;99.90
4701;DHT22;8724;51.272;6.554;2022-09-09T01:00:52;20.50;99.90
4701;DHT22;8724;51.272;6.554;2022-09-09T01:03:32;20.50;99.90
4701;DHT22;8724;51.272;6.554;2022-09-09T01:06:11;20.50;99.90
4701;DHT22;8724;51.272;6.554;2022-09-09T01:09:00;20.50;99.90
4701;DHT22;8724;51.272;6.554;2022-09-09T01:11:36;20.50;99.90
4701;DHT22;8724;51.272;6.554;2022-09-09T01:14:14;20.50;99.90
4701;DHT22;8724;51.272;6.554;2022-09-09T01:16:47;20.50;99.90
4701;DHT22;8724;51.272;6.554;2022-09-09T01:19:23;20.50;99.90
4701;DHT22;8724;51.272;6.554;2022-09-09T01:21:59;20.50;99.90
4701;DHT22;8724;51.272;6.554;2022-09-09T01:24:38;20.50;99.90
4701;DHT22;8724;51.272;6.554;2022-09-09T01:27:18;20.40;99.90
4701;DHT22;8724;51.272;6.554;2022-09-09T01:29:48;20.50;99.90
4701;DHT22;8724;51.272;6.554;2022-09-09T01:32:38;20.40;99.90
4701;DHT22;8724;51.272;6.554;2022-09-09T01:35:11;20.40;99.90
4701;DHT22;8724;51.272;6.554;2022-09-09T01:37:41;20.40;99.90
4701;DHT22;8724;51.272;6.554;2022-09-09T01:40:09;20.40;99.90
4701;DHT22;8724;51.272;6.554;2022-09-09T01:42:40;20.40;99.90
4701;DHT22;8724;51.272;6.554;2022-09-09T01:45:09;20.40;99.90
4701;DHT22;8724;51.272;6.554;2022-09-09T01:47:37;20.40;99.90
4701;DHT22;8724;51.272;6.554;2022-09-09T01:50:17;20.40;99.90
4701;DHT22;8724;51.272;6.554;2022-09-09T01:52:49;20.30;99.90
4701;DHT22;8724;51.272;6.554;2022-09-09T01:55:29;20.40;99.90
4701;DHT22;8724;51.272;6.554;2022-09-09T01:58:17;20.30;99.90
4701;DHT22;8724;51.272;6.554;2022-09-09T02:00:59;20.30;99.90
4701;DHT22;8724;51.272;6.554;2022-09-09T02:03:32;20.30;99.90
4701;DHT22;8724;51.272;6.554;2022-09-09T02:06:18;20.30;99.90
4701;DHT22;8724;51.272;6.554;2022-09-09T02:08:56;20.30;99.90
4701;DHT22;8724;51.272;6.554;2022-09-09T02:11:26;20.30;99.90
4701;DHT22;8724;51.272;6.554;2022-09-09T02:14:06;20.30;99.90
4701;DHT22;8724;51.272;6.554;2022-09-09T02:16:42;20.30;99.90
4701;DHT22;8724;51.272;6.554;2022-09-09T02:19:15;20.30;99.90
4701;DHT22;8724;51.272;6.554;2022-09-09T02:21:59;20.30;99.90
4701;DHT22;8724;51.272;6.554;2022-09-09T02:24:30;20.30;99.90
4701;DHT22;8724;51.272;6.554;2022-09-09T02:27:17;20.20;99.90
4701;DHT22;8724;51.272;6.554;2022-09-09T02:29:48;20.20;99.90
4701;DHT22;8724;51.272;6.554;2022-09-09T02:32:24;20.20;99.90
4701;DHT22;8724;51.272;6.554;2022-09-09T02:34:55;20.20;99.90
4701;DHT22;8724;51.272;6.554;2022-09-09T02:37:31;20.30;99.90
4701;DHT22;8724;51.272;6.554;2022-09-09T02:40:00;20.20;99.90
4701;DHT22;8724;51.272;6.554;2022-09-09T02:42:30;20.20;99.90
4701;DHT22;8724;51.272;6.554;2022-09-09T02:45:01;20.20;99.90
4701;DHT22;8724;51.272;6.554;2022-09-09T02:47:34;20.20;99.90
4701;DHT22;8724;51.272;6.554;2022-09-09T02:50:13;20.20;99.90
4701;DHT22;8724;51.272;6.554;2022-09-09T02:52:52;20.20;99.90
4701;DHT22;8724;51.272;6.554;2022-09-09T02:55:29;20.20;99.90
4701;DHT22;8724;51.272;6.554;2022-09-09T02:58:05;20.20;99.90
4701;DHT22;8724;51.272;6.554;2022-09-09T03:00:37;20.20;99.90
4701;DHT22;8724;51.272;6.554;2022-09-09T03:03:07;20.20;99.90
4701;DHT22;8724;51.272;6.554;2022-09-09T03:05:38;20.20;99.90
4701;DHT22;8724;51.272;6.554;2022-09-09T03:08:11;20.20;99.90
4701;DHT22;8724;51.272;6.554;2022-09-09T03:10:42;20.20;99.90
4701;DHT22;8724;51.272;6.554;2022-09-09T03:13:14;20.10;99.90
4701;DHT22;8724;51.272;6.554;2022-09-09T03:15:44;20.20;99.90
4701;DHT22;8724;51.272;6.554;2022-09-09T03:18:16;20.20;99.90
4701;DHT22;8724;51.272;6.554;2022-09-09T03:20:49;20.10;99.90
4701;DHT22;8724;51.272;6.554;2022-09-09T03:23:19;20.10;99.90
4701;DHT22;8724;51.272;6.554;2022-09-09T03:25:48;20.10;99.90
4701;DHT22;8724;51.272;6.554;2022-09-09T03:28:19;20.10;99.90
4701;DHT22;8724;51.272;6.554;2022-09-09T03:30:51;20.10;99.90
4701;DHT22;8724;51.272;6.554;2022-09-09T03:33:19;20.10;99.90
4701;DHT22;8724;51.272;6.554;2022-09-09T03:35:47;20.10;99.90
4701;DHT22;8724;51.272;6.554;2022-09-09T03:38:18;20.10;99.90
4701;DHT22;8724;51.272;6.554;2022-09-09T03:40:51;20.10;99.90
4701;DHT22;8724;51.272;6.554;2022-09-09T03:43:22;20.10;99.90
4701;DHT22;8724;51.272;6.554;2022-09-09T03:45:53;20.20;99.90
4701;DHT22;8724;51.272;6.554;2022-09-09T03:48:26;20.20;99.90
4701;DHT22;8724;51.272;6.554;2022-09-09T03:50:55;20.20;99.90
4701;DHT22;8724;51.272;6.554;2022-09-09T03:53:25;20.20;99.90
4701;DHT22;8724;51.272;6.554;2022-09-09T03:55:55;20.20;99.90
4701;DHT22;8724;51.272;6.554;2022-09-09T03:58:27;20.20;99.90
4701;DHT22;8724;51.272;6.554;2022-09-09T04:01:04;20.20;99.90
4701;DHT22;8724;51.272;6.554;2022-09-09T04:03:33;20.10;99.90
4701;DHT22;8724;51.272;6.554;2022-09-09T04:06:03;20.10;99.90
4701;DHT22;8724;51.272;6.554;2022-09-09T04:08:32;20.10;99.90
4701;DHT22;8724;51.272;6.554;2022-09-09T04:11:00;20.10;99.90
4701;DHT22;8724;51.272;6.554;2022-09-09T04:13:34;20.20;99.90
4701;DHT22;8724;51.272;6.554;2022-09-09T04:16:06;20.10;99.90
4701;DHT22;8724;51.272;6.554;2022-09-09T04:18:36;20.10;99.90
4701;DHT22;8724;51.272;6.554;2022-09-09T04:21:05;20.10;99.90
4701;DHT22;8724;51.272;6.554;2022-09-09T04:23:34;20.20;99.90
4701;DHT22;8724;51.272;6.554;2022-09-09T04:26:04;20.10;99.90
4701;DHT22;8724;51.272;6.554;2022-09-09T04:28:34;20.10;99.90
4701;DHT22;8724;51.272;6.554;2022-09-09T04:31:09;20.10;99.90
4701;DHT22;8724;51.272;6.554;2022-09-09T04:33:39;20.10;99.90
4701;DHT22;8724;51.272;6.554;2022-09-09T04:36:09;20.10;99.90
4701;DHT22;8724;51.272;6.554;2022-09-09T04:38:37;20.10;99.90
4701;DHT22;8724;51.272;6.554;2022-09-09T04:41:06;20.10;99.90
4701;DHT22;8724;51.272;6.554;2022-09-09T04:43:36;20.10;99.90
4701;DHT22;8724;51.272;6.554;2022-09-09T04:46:09;20.20;99.90
4701;DHT22;8724;51.272;6.554;2022-09-09T04:48:38;20.10;99.90
4701;DHT22;8724;51.272;6.554;2022-09-09T04:51:11;20.20;99.90
4701;DHT22;8724;51.272;6.554;2022-09-09T04:53:40;20.20;99.90
4701;DHT22;8724;51.272;6.554;2022-09-09T04:56:12;20.10;99.90
4701;DHT22;8724;51.272;6.554;2022-09-09T04:58:49;20.20;99.90
4701;DHT22;8724;51.272;6.554;2022-09-09T05:01:22;20.10;99.90
4701;DHT22;8724;51.272;6.554;2022-09-09T05:03:54;20.20;99.90
4701;DHT22;8724;51.272;6.554;2022-09-09T05:06:23;20.20;99.90
4701;DHT22;8724;51.272;6.554;2022-09-09T05:08:57;20.20;99.90
4701;DHT22;8724;51.272;6.554;2022-09-09T05:11:30;20.20;99.90
4701;DHT22;8724;51.272;6.554;2022-09-09T05:14:05;20.20;99.90
4701;DHT22;8724;51.272;6.554;2022-09-09T05:16:36;20.20;99.90
4701;DHT22;8724;51.272;6.554;2022-09-09T05:19:04;20.20;99.90
4701;DHT22;8724;51.272;6.554;2022-09-09T05:21:42;20.20;99.90
4701;DHT22;8724;51.272;6.554;2022-09-09T05:24:11;20.20;99.90
4701;DHT22;8724;51.272;6.554;2022-09-09T05:26:40;20.20;99.90
4701;DHT22;8724;51.272;6.554;2022-09-09T05:29:08;20.20;99.90
4701;DHT22;8724;51.272;6.554;2022-09-09T05:31:39;20.20;99.90
4701;DHT22;8724;51.272;6.554;2022-09-09T05:34:12;20.20;99.90
4701;DHT22;8724;51.272;6.554;2022-09-09T05:36:40;20.20;99.90
4701;DHT22;8724;51.272;6.554;2022-09-09T05:39:09;20.20;99.90
4701;DHT22;8724;51.272;6.554;2022-09-09T05:41:38;20.20;99.90
4701;DHT22;8724;51.272;6.554;2022-09-09T05:44:08;20.20;99.90
4701;DHT22;8724;51.272;6.554;2022-09-09T05:46:39;20.20;99.90
4701;DHT22;8724;51.272;6.554;2022-09-09T05:49:08;20.20;99.90
4701;DHT22;8724;51.272;6.554;2022-09-09T05:51:39;20.20;99.90
4701;DHT22;8724;51.272;6.554;2022-09-09T05:54:10;20.20;99.90
4701;DHT22;8724;51.272;6.554;2022-09-09T05:56:45;20.20;99.90
4701;DHT22;8724;51.272;6.554;2022-09-09T05:59:17;20.20;99.90
4701;DHT22;8724;51.272;6.554;2022-09-09T06:01:47;20.20;99.90
4701;DHT22;8724;51.272;6.554;2022-09-09T06:04:21;20.20;99.90
4701;DHT22;8724;51.272;6.554;2022-09-09T06:06:51;20.20;99.90
4701;DHT22;8724;51.272;6.554;2022-09-09T06:09:21;20.20;99.90
4701;DHT22;8724;51.272;6.554;2022-09-09T06:11:49;20.20;99.90
4701;DHT22;8724;51.272;6.554;2022-09-09T06:14:19;20.20;99.90
4701;DHT22;8724;51.272;6.554;2022-09-09T06:16:51;20.20;99.90
4701;DHT22;8724;51.272;6.554;2022-09-09T06:19:22;20.10;99.90
4701;DHT22;8724;51.272;6.554;2022-09-09T06:21:56;20.20;99.90
4701;DHT22;8724;51.272;6.554;2022-09-09T06:24:26;20.20;99.90
4701;DHT22;8724;51.272;6.554;2022-09-09T06:26:57;20.20;99.90
4701;DHT22;8724;51.272;6.554;2022-09-09T06:29:29;20.10;99.90
4701;DHT22;8724;51.272;6.554;2022-09-09T06:31:59;20.10;99.90
4701;DHT22;8724;51.272;6.554;2022-09-09T06:34:27;20.10;99.90
4701;DHT22;8724;51.272;6.554;2022-09-09T06:36:57;20.10;99.90
4701;DHT22;8724;51.272;6.554;2022-09-09T06:39:34;20.10;99.90
4701;DHT22;8724;51.272;6.554;2022-09-09T06:42:03;20.10;99.90
4701;DHT22;8724;51.272;6.554;2022-09-09T06:44:54;20.10;99.90
4701;DHT22;8724;51.272;6.554;2022-09-09T06:47:47;20.10;99.90
4701;DHT22;8724;51.272;6.554;2022-09-09T06:50:15;20.10;99.90
4701;DHT22;8724;51.272;6.554;2022-09-09T06:52:46;20.10;99.90
4701;DHT22;8724;51.272;6.554;2022-09-09T06:55:14;20.10;99.90
4701;DHT22;8724;51.272;6.554;2022-09-09T06:57:45;20.10;99.90
4701;DHT22;8724;51.272;6.554;2022-09-09T07:00:21;20.10;99.90
4701;DHT22;8724;51.272;6.554;2022-09-09T07:02:52;20.10;99.90
4701;DHT22;8724;51.272;6.554;2022-09-09T07:05:20;20.10;99.90
4701;DHT22;8724;51.272;6.554;2022-09-09T07:07:51;20.10;99.90
4701;DHT22;8724;51.272;6.554;2022-09-09T07:10:22;20.10;99.90
4701;DHT22;8724;51.272;6.554;2022-09-09T07:12:51;20.10;99.90
4701;DHT22;8724;51.272;6.554;2022-09-09T07:15:22;20.10;99.90
4701;DHT22;8724;51.272;6.554;2022-09-09T07:17:52;20.10;99.90
4701;DHT22;8724;51.272;6.554;2022-09-09T07:20:21;20.10;99.90
4701;DHT22;8724;51.272;6.554;2022-09-09T07:22:49;20.10;99.90
4701;DHT22;8724;51.272;6.554;2022-09-09T07:25:18;20.10;99.90
4701;DHT22;8724;51.272;6.554;2022-09-09T07:27:47;20.10;99.90
4701;DHT22;8724;51.272;6.554;2022-09-09T07:30:16;20.10;99.90
4701;DHT22;8724;51.272;6.554;2022-09-09T07:32:55;20.10;99.90
4701;DHT22;8724;51.272;6.554;2022-09-09T07:35:26;20.10;99.90
4701;DHT22;8724;51.272;6.554;2022-09-09T07:37:54;20.10;99.90
4701;DHT22;8724;51.272;6.554;2022-09-09T07:40:23;20.10;99.90
4701;DHT22;8724;51.272;6.554;2022-09-09T07:42:52;20.10;99.90
4701;DHT22;8724;51.272;6.554;2022-09-09T07:45:20;20.00;99.90
4701;DHT22;8724;51.272;6.554;2022-09-09T07:47:49;20.00;99.90
4701;DHT22;8724;51.272;6.554;2022-09-09T07:50:19;20.10;99.90
4701;DHT22;8724;51.272;6.554;2022-09-09T07:52:47;20.10;99.90
4701;DHT22;8724;51.272;6.554;2022-09-09T07:55:15;20.10;99.90
4701;DHT22;8724;51.272;6.554;2022-09-09T07:57:44;20.10;99.90
4701;DHT22;8724;51.272;6.554;2022-09-09T08:00:14;20.10;99.90
4701;DHT22;8724;51.272;6.554;2022-09-09T08:02:49;20.10;99.90
4701;DHT22;8724;51.272;6.554;2022-09-09T08:05:19;20.10;99.90
4701;DHT22;8724;51.272;6.554;2022-09-09T08:07:49;20.10;99.90
4701;DHT22;8724;51.272;6.554;2022-09-09T08:10:18;20.10;99.90
4701;DHT22;8724;51.272;6.554;2022-09-09T08:12:48;20.10;99.90
4701;DHT22;8724;51.272;6.554;2022-09-09T08:15:34;20.20;99.90
4701;DHT22;8724;51.272;6.554;2022-09-09T08:18:03;20.20;99.90
4701;DHT22;8724;51.272;6.554;2022-09-09T08:20:35;20.20;99.90
4701;DHT22;8724;51.272;6.554;2022-09-09T08:23:04;20.20;99.90
4701;DHT22;8724;51.272;6.554;2022-09-09T08:25:33;20.30;99.90
4701;DHT22;8724;51.272;6.554;2022-09-09T08:28:01;20.30;99.90
4701;DHT22;8724;51.272;6.554;2022-09-09T08:30:31;20.30;99.90
4701;DHT22;8724;51.272;6.554;2022-09-09T08:32:59;20.30;99.90
4701;DHT22;8724;51.272;6.554;2022-09-09T08:35:28;20.30;99.90
4701;DHT22;8724;51.272;6.554;2022-09-09T08:38:00;20.30;99.90
4701;DHT22;8724;51.272;6.554;2022-09-09T08:40:39;20.40;99.90
4701;DHT22;8724;51.272;6.554;2022-09-09T08:43:13;20.40;99.90
4701;DHT22;8724;51.272;6.554;2022-09-09T08:45:50;20.40;99.90
4701;DHT22;8724;51.272;6.554;2022-09-09T08:48:41;20.40;99.90
4701;DHT22;8724;51.272;6.554;2022-09-09T08:51:13;20.40;99.90
4701;DHT22;8724;51.272;6.554;2022-09-09T08:53:48;20.40;99.90
4701;DHT22;8724;51.272;6.554;2022-09-09T08:56:18;20.50;99.90
4701;DHT22;8724;51.272;6.554;2022-09-09T08:58:54;20.40;99.90
4701;DHT22;8724;51.272;6.554;2022-09-09T09:01:47;20.50;99.90
4701;DHT22;8724;51.272;6.554;2022-09-09T09:04:43;20.50;99.90
4701;DHT22;8724;51.272;6.554;2022-09-09T09:07:23;20.40;99.90
4701;DHT22;8724;51.272;6.554;2022-09-09T09:10:05;20.40;99.90
4701;DHT22;8724;51.272;6.554;2022-09-09T09:12:58;20.50;99.90
4701;DHT22;8724;51.272;6.554;2022-09-09T09:15:32;20.40;99.90
4701;DHT22;8724;51.272;6.554;2022-09-09T09:18:05;20.50;99.90
4701;DHT22;8724;51.272;6.554;2022-09-09T09:20:41;20.40;99.90
4701;DHT22;8724;51.272;6.554;2022-09-09T09:23:19;20.50;99.90
4701;DHT22;8724;51.272;6.554;2022-09-09T09:25:58;20.50;99.90
4701;DHT22;8724;51.272;6.554;2022-09-09T09:28:30;20.50;99.90
4701;DHT22;8724;51.272;6.554;2022-09-09T09:31:09;20.50;99.90
4701;DHT22;8724;51.272;6.554;2022-09-09T09:33:46;20.50;99.90
4701;DHT22;8724;51.272;6.554;2022-09-09T09:36:15;20.50;99.90
4701;DHT22;8724;51.272;6.554;2022-09-09T09:38:54;20.60;99.90
4701;DHT22;8724;51.272;6.554;2022-09-09T09:41:45;20.60;99.90
4701;DHT22;8724;51.272;6.554;2022-09-09T09:44:26;20.60;99.90
4701;DHT22;8724;51.272;6.554;2022-09-09T09:47:08;20.60;99.90
4701;DHT22;8724;51.272;6.554;2022-09-09T09:49:37;20.60;99.90
4701;DHT22;8724;51.272;6.554;2022-09-09T09:52:12;20.60;99.90
4701;DHT22;8724;51.272;6.554;2022-09-09T09:54:42;20.70;99.90
4701;DHT22;8724;51.272;6.554;2022-09-09T09:57:12;20.70;99.90
4701;DHT22;8724;51.272;6.554;2022-09-09T09:59:44;20.70;99.90
4701;DHT22;8724;51.272;6.554;2022-09-09T10:02:24;20.70;99.90
4701;DHT22;8724;51.272;6.554;2022-09-09T10:05:04;20.70;99.90
4701;DHT22;8724;51.272;6.554;2022-09-09T10:07:35;20.70;99.90
4701;DHT22;8724;51.272;6.554;2022-09-09T10:10:05;20.80;99.90
4701;DHT22;8724;51.272;6.554;2022-09-09T10:12:42;20.80;99.90
4701;DHT22;8724;51.272;6.554;2022-09-09T10:15:29;20.80;99.90
4701;DHT22;8724;51.272;6.554;2022-09-09T10:18:08;20.80;99.90
4701;DHT22;8724;51.272;6.554;2022-09-09T10:20:48;20.80;99.90
4701;DHT22;8724;51.272;6.554;2022-09-09T10:23:28;20.80;99.90
4701;DHT22;8724;51.272;6.554;2022-09-09T10:26:11;20.80;99.90
4701;DHT22;8724;51.272;6.554;2022-09-09T10:29:10;20.80;99.90
4701;DHT22;8724;51.272;6.554;2022-09-09T10:31:50;20.80;99.90
4701;DHT22;8724;51.272;6.554;2022-09-09T10:34:30;20.80;99.90
4701;DHT22;8724;51.272;6.554;2022-09-09T10:37:06;20.80;99.90
4701;DHT22;8724;51.272;6.554;2022-09-09T10:39:37;20.80;99.90
4701;DHT22;8724;51.272;6.554;2022-09-09T10:42:11;20.80;99.90
4701;DHT22;8724;51.272;6.554;2022-09-09T10:44:54;20.80;99.90
4701;DHT22;8724;51.272;6.554;2022-09-09T10:47:41;20.90;99.90
4701;DHT22;8724;51.272;6.554;2022-09-09T10:50:32;20.80;99.90
4701;DHT22;8724;51.272;6.554;2022-09-09T10:53:31;20.80;99.90
4701;DHT22;8724;51.272;6.554;2022-09-09T10:56:06;20.80;99.90
4701;DHT22;8724;51.272;6.554;2022-09-09T10:58:39;20.80;99.90
4701;DHT22;8724;51.272;6.554;2022-09-09T11:01:15;20.90;99.90
4701;DHT22;8724;51.272;6.554;2022-09-09T11:03:49;20.80;99.90
4701;DHT22;8724;51.272;6.554;2022-09-09T11:06:24;20.90;99.90
4701;DHT22;8724;51.272;6.554;2022-09-09T11:08:57;20.80;99.90
4701;DHT22;8724;51.272;6.554;2022-09-09T11:11:32;20.90;99.90
4701;DHT22;8724;51.272;6.554;2022-09-09T11:14:05;20.90;99.90
4701;DHT22;8724;51.272;6.554;2022-09-09T11:16:40;20.90;99.90
4701;DHT22;8724;51.272;6.554;2022-09-09T11:19:14;20.90;99.90
4701;DHT22;8724;51.272;6.554;2022-09-09T11:21:46;20.90;99.90
4701;DHT22;8724;51.272;6.554;2022-09-09T11:24:20;20.90;99.90
4701;DHT22;8724;51.272;6.554;2022-09-09T11:26:53;20.60;99.90
4701;DHT22;8724;51.272;6.554;2022-09-09T11:32:54;21.00;99.90
4701;DHT22;8724;51.272;6.554;2022-09-09T11:35:33;21.00;99.90
4701;DHT22;8724;51.272;6.554;2022-09-09T11:38:19;21.00;99.90
4701;DHT22;8724;51.272;6.554;2022-09-09T11:40:56;21.00;99.90
4701;DHT22;8724;51.272;6.554;2022-09-09T11:43:30;21.00;99.90
4701;DHT22;8724;51.272;6.554;2022-09-09T11:46:01;21.00;99.90
4701;DHT22;8724;51.272;6.554;2022-09-09T11:48:34;21.00;99.90
4701;DHT22;8724;51.272;6.554;2022-09-09T11:51:06;21.00;99.90
4701;DHT22;8724;51.272;6.554;2022-09-09T11:53:50;21.00;99.90
4701;DHT22;8724;51.272;6.554;2022-09-09T11:56:27;21.00;99.90
4701;DHT22;8724;51.272;6.554;2022-09-09T11:58:59;21.00;99.90
4701;DHT22;8724;51.272;6.554;2022-09-09T12:01:40;21.00;99.90
4701;DHT22;8724;51.272;6.554;2022-09-09T12:04:17;21.00;99.90
4701;DHT22;8724;51.272;6.554;2022-09-09T12:06:50;21.00;99.90
4701;DHT22;8724;51.272;6.554;2022-09-09T12:09:25;21.00;99.90
4701;DHT22;8724;51.272;6.554;2022-09-09T12:12:05;21.00;99.90
4701;DHT22;8724;51.272;6.554;2022-09-09T12:14:42;21.00;99.90
4701;DHT22;8724;51.272;6.554;2022-09-09T12:17:19;21.00;99.90
4701;DHT22;8724;51.272;6.554;2022-09-09T12:20:00;21.00;99.90
4701;DHT22;8724;51.272;6.554;2022-09-09T12:22:37;21.00;99.90
4701;DHT22;8724;51.272;6.554;2022-09-09T12:25:19;21.00;99.90
4701;DHT22;8724;51.272;6.554;2022-09-09T12:28:02;21.00;99.90
4701;DHT22;8724;51.272;6.554;2022-09-09T12:30:37;20.90;99.90
4701;DHT22;8724;51.272;6.554;2022-09-09T12:33:11;20.90;99.90
4701;DHT22;8724;51.272;6.554;2022-09-09T12:35:43;20.80;99.90
4701;DHT22;8724;51.272;6.554;2022-09-09T12:38:14;20.80;99.90
4701;DHT22;8724;51.272;6.554;2022-09-09T12:40:54;20.90;99.90
4701;DHT22;8724;51.272;6.554;2022-09-09T12:43:23;20.70;99.90
4701;DHT22;8724;51.272;6.554;2022-09-09T12:45:54;20.60;99.90
4701;DHT22;8724;51.272;6.554;2022-09-09T12:48:29;20.60;99.90
4701;DHT22;8724;51.272;6.554;2022-09-09T12:51:01;20.50;99.90
4701;DHT22;8724;51.272;6.554;2022-09-09T12:53:32;20.50;99.90
4701;DHT22;8724;51.272;6.554;2022-09-09T12:56:05;20.50;99.90
4701;DHT22;8724;51.272;6.554;2022-09-09T12:58:36;20.40;99.90
4701;DHT22;8724;51.272;6.554;2022-09-09T13:01:21;20.40;99.90
4701;DHT22;8724;51.272;6.554;2022-09-09T13:03:50;20.40;99.90
4701;DHT22;8724;51.272;6.554;2022-09-09T13:06:23;20.40;99.90
4701;DHT22;8724;51.272;6.554;2022-09-09T13:08:56;20.40;99.90
4701;DHT22;8724;51.272;6.554;2022-09-09T13:11:27;20.40;99.90
4701;DHT22;8724;51.272;6.554;2022-09-09T13:13:57;20.40;99.90
4701;DHT22;8724;51.272;6.554;2022-09-09T13:16:28;20.40;99.90
4701;DHT22;8724;51.272;6.554;2022-09-09T13:19:00;20.50;99.90
4701;DHT22;8724;51.272;6.554;2022-09-09T13:21:35;20.50;99.90
4701;DHT22;8724;51.272;6.554;2022-09-09T13:24:04;20.60;99.90
4701;DHT22;8724;51.272;6.554;2022-09-09T13:26:34;20.60;99.90
4701;DHT22;8724;51.272;6.554;2022-09-09T13:29:16;20.60;99.90
4701;DHT22;8724;51.272;6.554;2022-09-09T13:31:48;20.60;99.90
4701;DHT22;8724;51.272;6.554;2022-09-09T13:34:27;20.70;99.90
4701;DHT22;8724;51.272;6.554;2022-09-09T13:37:00;20.70;99.90
4701;DHT22;8724;51.272;6.554;2022-09-09T13:39:30;20.70;99.90
4701;DHT22;8724;51.272;6.554;2022-09-09T13:41:58;20.80;99.90
4701;DHT22;8724;51.272;6.554;2022-09-09T13:44:29;20.80;99.90
4701;DHT22;8724;51.272;6.554;2022-09-09T13:47:03;20.80;99.90
4701;DHT22;8724;51.272;6.554;2022-09-09T13:49:36;20.90;99.90
4701;DHT22;8724;51.272;6.554;2022-09-09T13:52:09;20.90;99.90
4701;DHT22;8724;51.272;6.554;2022-09-09T13:54:38;20.90;99.90
4701;DHT22;8724;51.272;6.554;2022-09-09T13:57:15;21.00;99.90
4701;DHT22;8724;51.272;6.554;2022-09-09T13:59:45;21.00;99.90
4701;DHT22;8724;51.272;6.554;2022-09-09T14:02:30;21.00;99.90
4701;DHT22;8724;51.272;6.554;2022-09-09T14:04:59;21.10;99.90
4701;DHT22;8724;51.272;6.554;2022-09-09T14:07:28;21.10;99.90
4701;DHT22;8724;51.272;6.554;2022-09-09T14:09:57;21.20;99.90
4701;DHT22;8724;51.272;6.554;2022-09-09T14:12:27;21.20;99.90
4701;DHT22;8724;51.272;6.554;2022-09-09T14:14:55;21.20;99.90
4701;DHT22;8724;51.272;6.554;2022-09-09T14:17:24;21.20;99.90
4701;DHT22;8724;51.272;6.554;2022-09-09T14:19:54;21.10;99.90
4701;DHT22;8724;51.272;6.554;2022-09-09T14:22:23;21.00;99.90
4701;DHT22;8724;51.272;6.554;2022-09-09T14:24:53;20.90;99.90
4701;DHT22;8724;51.272;6.554;2022-09-09T14:27:21;20.80;99.90
4701;DHT22;8724;51.272;6.554;2022-09-09T14:29:49;20.70;99.90
4701;DHT22;8724;51.272;6.554;2022-09-09T14:32:18;20.60;99.90
4701;DHT22;8724;51.272;6.554;2022-09-09T14:34:46;20.50;99.90
4701;DHT22;8724;51.272;6.554;2022-09-09T14:37:16;20.40;99.90
4701;DHT22;8724;51.272;6.554;2022-09-09T14:39:45;20.40;99.90
4701;DHT22;8724;51.272;6.554;2022-09-09T14:42:15;20.30;99.90
4701;DHT22;8724;51.272;6.554;2022-09-09T14:44:43;20.30;99.90
4701;DHT22;8724;51.272;6.554;2022-09-09T14:47:11;20.20;99.90
4701;DHT22;8724;51.272;6.554;2022-09-09T14:49:39;20.20;99.90
4701;DHT22;8724;51.272;6.554;2022-09-09T14:52:12;20.10;99.90
4701;DHT22;8724;51.272;6.554;2022-09-09T14:54:41;20.10;99.90
4701;DHT22;8724;51.272;6.554;2022-09-09T14:57:09;20.10;99.90
4701;DHT22;8724;51.272;6.554;2022-09-09T14:59:38;20.50;99.90
4701;DHT22;8724;51.272;6.554;2022-09-09T15:02:08;20.10;99.90
4701;DHT22;8724;51.272;6.554;2022-09-09T15:04:36;20.10;99.90
4701;DHT22;8724;51.272;6.554;2022-09-09T15:07:05;20.10;99.90
4701;DHT22;8724;51.272;6.554;2022-09-09T15:09:33;20.10;99.90
4701;DHT22;8724;51.272;6.554;2022-09-09T15:12:01;20.10;99.90
4701;DHT22;8724;51.272;6.554;2022-09-09T15:14:29;20.10;99.90
4701;DHT22;8724;51.272;6.554;2022-09-09T15:16:59;20.20;99.90
4701;DHT22;8724;51.272;6.554;2022-09-09T15:19:27;20.20;99.90
4701;DHT22;8724;51.272;6.554;2022-09-09T15:21:56;20.20;99.90
4701;DHT22;8724;51.272;6.554;2022-09-09T15:24:24;20.30;99.90
4701;DHT22;8724;51.272;6.554;2022-09-09T15:26:52;20.30;99.90
4701;DHT22;8724;51.272;6.554;2022-09-09T15:29:21;20.30;99.90
4701;DHT22;8724;51.272;6.554;2022-09-09T15:31:49;20.40;99.90
4701;DHT22;8724;51.272;6.554;2022-09-09T15:34:20;20.40;99.90
4701;DHT22;8724;51.272;6.554;2022-09-09T15:36:48;20.40;99.90
4701;DHT22;8724;51.272;6.554;2022-09-09T15:39:17;20.40;99.90
4701;DHT22;8724;51.272;6.554;2022-09-09T15:41:47;20.40;99.90
4701;DHT22;8724;51.272;6.554;2022-09-09T15:44:15;20.50;99.90
4701;DHT22;8724;51.272;6.554;2022-09-09T15:46:49;20.50;99.90
4701;DHT22;8724;51.272;6.554;2022-09-09T15:49:20;20.50;99.90
4701;DHT22;8724;51.272;6.554;2022-09-09T15:51:52;20.60;99.90
4701;DHT22;8724;51.272;6.554;2022-09-09T15:54:22;20.60;99.90
4701;DHT22;8724;51.272;6.554;2022-09-09T15:56:56;20.60;99.90
4701;DHT22;8724;51.272;6.554;2022-09-09T15:59:25;20.60;99.90
4701;DHT22;8724;51.272;6.554;2022-09-09T16:01:54;20.70;99.90
4701;DHT22;8724;51.272;6.554;2022-09-09T16:04:24;20.70;99.90
4701;DHT22;8724;51.272;6.554;2022-09-09T16:06:54;20.70;99.90
4701;DHT22;8724;51.272;6.554;2022-09-09T16:09:23;20.70;99.90
4701;DHT22;8724;51.272;6.554;2022-09-09T16:11:51;20.70;99.90
4701;DHT22;8724;51.272;6.554;2022-09-09T16:14:20;20.70;99.90
4701;DHT22;8724;51.272;6.554;2022-09-09T16:16:48;20.70;99.90
4701;DHT22;8724;51.272;6.554;2022-09-09T16:19:16;20.80;99.90
4701;DHT22;8724;51.272;6.554;2022-09-09T16:21:48;20.80;99.90
4701;DHT22;8724;51.272;6.554;2022-09-09T16:24:18;20.80;99.90
4701;DHT22;8724;51.272;6.554;2022-09-09T16:26:48;20.80;99.90
4701;DHT22;8724;51.272;6.554;2022-09-09T16:29:17;20.90;99.90
4701;DHT22;8724;51.272;6.554;2022-09-09T16:31:46;20.90;99.90
4701;DHT22;8724;51.272;6.554;2022-09-09T16:34:16;20.90;99.90
4701;DHT22;8724;51.272;6.554;2022-09-09T16:36:47;20.90;99.90
4701;DHT22;8724;51.272;6.554;2022-09-09T16:39:17;20.90;99.90
4701;DHT22;8724;51.272;6.554;2022-09-09T16:41:47;21.00;99.90
4701;DHT22;8724;51.272;6.554;2022-09-09T16:44:17;21.00;99.90